Time;durP1;ratioP1;P1;durP2;ratioP2;P2;SDS_P1;SDS_P2;PMS_P1;PMS_P2;Temp;Humidity;BMP_temperature;BMP_pressure;BME280_temperature;BME280_humidity;BME280_pressure;Samples;Min_cycle;Max_cycle;Signal;HPM_P1;HPM_P2
2022/07/11 00:02:14;;;;;;;17.25;9.02;;;;;;;;;;4179326;34;20101;-67
2022/07/11 00:33:34;;;;;;;10.75;8.48;;;;;;;;;;4752578;28;20144;-66
2022/07/11 00:36:00;;;;;;;14.63;7.90;;;;;;;;;;4191100;34;20113;-65
2022/07/11 00:38:26;;;;;;;9.98;7.93;;;;;;;;;;4191517;34;20118;-67
2022/07/11 00:40:52;;;;;;;10.35;7.68;;;;;;;;;;4191545;34;20135;-65
2022/07/11 00:43:19;;;;;;;9.30;7.30;;;;;;;;;;4191455;34;20113;-66
2022/07/11 00:45:48;;;;;;;10.52;8.35;;;;;;;;;;4191386;34;20106;-69
2022/07/11 00:48:14;;;;;;;10.90;7.50;;;;;;;;;;4191654;34;20218;-69
2022/07/11 00:50:40;;;;;;;10.63;7.75;;;;;;;;;;4191535;34;20114;-65
2022/07/11 00:53:06;;;;;;;14.87;8.07;;;;;;;;;;4191546;34;20125;-65
2022/07/11 00:55:32;;;;;;;11.05;8.27;;;;;;;;;;4191704;34;20112;-65
2022/07/11 00:57:58;;;;;;;12.13;8.10;;;;;;;;;;4178513;34;20118;-68
2022/07/11 01:00:24;;;;;;;12.63;8.48;;;;;;;;;;4191314;34;20547;-67
2022/07/11 01:02:50;;;;;;;14.73;9.32;;;;;;;;;;4191278;34;20114;-68
2022/07/11 01:05:16;;;;;;;15.85;8.57;;;;;;;;;;4191431;34;20212;-68
2022/07/11 01:07:42;;;;;;;19.95;8.73;;;;;;;;;;4191332;34;20133;-66
2022/07/11 01:10:08;;;;;;;11.60;8.68;;;;;;;;;;4190944;34;20109;-66
2022/07/11 01:12:34;;;;;;;18.87;9.65;;;;;;;;;;4191308;34;20142;-66
2022/07/11 01:15:02;;;;;;;11.20;8.40;;;;;;;;;;4191187;34;20134;-65
2022/07/11 01:17:29;;;;;;;10.95;8.70;;;;;;;;;;4191214;34;20129;-66
2022/07/11 01:19:55;;;;;;;11.77;8.35;;;;;;;;;;4191393;34;20126;-65
2022/07/11 01:22:24;;;;;;;18.85;8.20;;;;;;;;;;4191400;34;20193;-65
2022/07/11 01:24:50;;;;;;;11.57;8.57;;;;;;;;;;4191224;34;20132;-65
2022/07/11 01:27:16;;;;;;;9.63;7.93;;;;;;;;;;4191431;34;20523;-66
2022/07/11 01:29:42;;;;;;;13.60;8.32;;;;;;;;;;4191177;34;20114;-66
2022/07/11 01:32:08;;;;;;;11.45;8.43;;;;;;;;;;4191008;34;20117;-67
2022/07/11 01:34:34;;;;;;;16.45;9.65;;;;;;;;;;4190816;34;20122;-66
2022/07/11 01:37:00;;;;;;;13.20;9.00;;;;;;;;;;4191004;34;20121;-66
2022/07/11 01:39:30;;;;;;;13.75;8.75;;;;;;;;;;4191086;34;20123;-67
2022/07/11 01:41:59;;;;;;;14.85;9.68;;;;;;;;;;4191031;34;20121;-66
2022/07/11 01:44:25;;;;;;;10.60;7.97;;;;;;;;;;4191302;34;20114;-65
2022/07/11 01:46:51;;;;;;;8.65;7.28;;;;;;;;;;4190996;34;20207;-65
2022/07/11 01:49:17;;;;;;;12.40;8.48;;;;;;;;;;4190998;34;20110;-65
2022/07/11 01:51:43;;;;;;;11.55;7.87;;;;;;;;;;4191010;34;20120;-64
2022/07/11 01:54:09;;;;;;;11.85;8.68;;;;;;;;;;4177506;34;20130;-65
2022/07/11 01:56:35;;;;;;;12.40;8.60;;;;;;;;;;4190916;34;20454;-65
2022/07/11 01:59:01;;;;;;;13.25;7.97;;;;;;;;;;4190822;34;20451;-65
2022/07/11 02:01:27;;;;;;;14.38;7.78;;;;;;;;;;4190774;34;20201;-65
2022/07/11 02:03:55;;;;;;;9.80;7.65;;;;;;;;;;4190850;34;20206;-66
2022/07/11 02:06:21;;;;;;;12.43;7.47;;;;;;;;;;4190732;34;20090;-65
2022/07/11 02:08:47;;;;;;;12.20;7.60;;;;;;;;;;4190795;34;20319;-66
2022/07/11 02:11:13;;;;;;;14.35;8.00;;;;;;;;;;4190626;34;20198;-66
2022/07/11 02:13:39;;;;;;;15.13;9.32;;;;;;;;;;4190692;34;20117;-65
2022/07/11 02:16:05;;;;;;;10.70;8.15;;;;;;;;;;4190908;34;20456;-65
2022/07/11 02:18:34;;;;;;;12.25;7.72;;;;;;;;;;4190889;34;20214;-65
2022/07/11 02:21:00;;;;;;;11.85;8.80;;;;;;;;;;4177644;34;20137;-65
2022/07/11 02:23:26;;;;;;;12.07;9.07;;;;;;;;;;4190590;34;20102;-65
2022/07/11 02:25:53;;;;;;;11.12;9.93;;;;;;;;;;4190547;34;20138;-66
2022/07/11 02:28:19;;;;;;;14.00;9.25;;;;;;;;;;4190571;34;20095;-67
2022/07/11 02:30:45;;;;;;;13.25;9.07;;;;;;;;;;4190551;34;20113;-68
2022/07/11 02:33:15;;;;;;;11.07;9.88;;;;;;;;;;4190419;34;20118;-68
2022/07/11 02:35:48;;;;;;;10.02;8.93;;;;;;;;;;4178283;34;20104;-68
2022/07/11 02:38:15;;;;;;;13.27;9.18;;;;;;;;;;4190542;34;20812;-68
2022/07/11 02:40:41;;;;;;;14.38;9.80;;;;;;;;;;4190425;34;20200;-66
2022/07/11 02:43:07;;;;;;;13.65;10.75;;;;;;;;;;4190347;34;20146;-65
2022/07/11 02:45:33;;;;;;;12.20;10.73;;;;;;;;;;4190370;34;20214;-66
2022/07/11 02:47:59;;;;;;;14.55;12.35;;;;;;;;;;4177472;34;20125;-66
2022/07/11 02:50:25;;;;;;;15.48;11.80;;;;;;;;;;4177749;34;20097;-66
2022/07/11 02:52:51;;;;;;;17.40;12.18;;;;;;;;;;4190234;34;20508;-67
2022/07/11 02:55:17;;;;;;;15.27;12.57;;;;;;;;;;4190227;34;20118;-67
2022/07/11 02:57:43;;;;;;;16.52;12.02;;;;;;;;;;4190515;34;20518;-67
2022/07/11 03:00:13;;;;;;;16.15;11.35;;;;;;;;;;4190111;34;20121;-67
2022/07/11 03:02:39;;;;;;;14.27;12.18;;;;;;;;;;4190240;34;20105;-67
2022/07/11 03:05:06;;;;;;;17.10;11.38;;;;;;;;;;4177581;34;20121;-67
2022/07/11 03:07:32;;;;;;;18.77;11.12;;;;;;;;;;4192299;34;20118;-67
2022/07/11 03:09:58;;;;;;;15.68;11.85;;;;;;;;;;4192154;34;20113;-66
2022/07/11 03:12:24;;;;;;;16.73;11.05;;;;;;;;;;4192262;34;20102;-66
2022/07/11 03:14:50;;;;;;;14.55;11.63;;;;;;;;;;4192332;34;20110;-66
2022/07/11 03:17:17;;;;;;;16.67;11.80;;;;;;;;;;4192126;34;20604;-66
2022/07/11 03:19:43;;;;;;;25.60;14.50;;;;;;;;;;4192211;34;20124;-66
2022/07/11 03:22:09;;;;;;;16.80;12.10;;;;;;;;;;4192099;34;20118;-66
2022/07/11 03:24:36;;;;;;;16.45;13.13;;;;;;;;;;4192046;34;20114;-66
2022/07/11 03:27:02;;;;;;;19.55;14.00;;;;;;;;;;4192030;34;20442;-66
2022/07/11 03:29:28;;;;;;;20.58;11.70;;;;;;;;;;4192208;34;20117;-66
2022/07/11 03:31:54;;;;;;;20.20;12.77;;;;;;;;;;4179385;34;20098;-65
2022/07/11 03:34:20;;;;;;;20.00;12.95;;;;;;;;;;4192022;34;20114;-65
2022/07/11 03:36:46;;;;;;;15.85;11.55;;;;;;;;;;4192186;34;20198;-66
2022/07/11 03:39:14;;;;;;;14.80;11.48;;;;;;;;;;4179180;34;20122;-66
2022/07/11 03:41:40;;;;;;;18.45;11.25;;;;;;;;;;4179144;34;20113;-66
2022/07/11 03:44:06;;;;;;;20.42;12.10;;;;;;;;;;4191963;34;20511;-65
2022/07/11 03:46:32;;;;;;;18.65;12.52;;;;;;;;;;4192186;34;20105;-66
2022/07/11 03:48:58;;;;;;;18.85;12.57;;;;;;;;;;4191977;34;20145;-66
2022/07/11 03:51:24;;;;;;;23.10;14.20;;;;;;;;;;4191820;34;20438;-66
2022/07/11 03:53:50;;;;;;;19.60;13.98;;;;;;;;;;4192131;34;20114;-66
2022/07/11 03:56:20;;;;;;;21.58;14.70;;;;;;;;;;4192039;34;20198;-68
2022/07/11 03:58:46;;;;;;;28.98;14.93;;;;;;;;;;4191845;34;20454;-67
2022/07/11 04:01:12;;;;;;;24.37;14.98;;;;;;;;;;4191906;34;20120;-67
2022/07/11 04:03:38;;;;;;;23.48;15.93;;;;;;;;;;4191729;34;20701;-67
2022/07/11 04:06:04;;;;;;;25.75;14.85;;;;;;;;;;4191597;34;20221;-67
2022/07/11 04:08:30;;;;;;;28.80;15.00;;;;;;;;;;4191864;34;20117;-67
2022/07/11 04:10:56;;;;;;;29.50;15.25;;;;;;;;;;4191546;34;20125;-67
2022/07/11 04:13:22;;;;;;;31.37;15.70;;;;;;;;;;4167267;34;20603;-68
2022/07/11 04:15:48;;;;;;;40.60;18.30;;;;;;;;;;4191135;34;20113;-67
2022/07/11 04:18:14;;;;;;;38.97;19.12;;;;;;;;;;4191566;34;20106;-67
2022/07/11 04:20:40;;;;;;;39.03;18.60;;;;;;;;;;4191610;34;20964;-66
2022/07/11 04:23:06;;;;;;;37.17;17.33;;;;;;;;;;4178672;34;20176;-66
2022/07/11 04:25:34;;;;;;;31.75;16.58;;;;;;;;;;4191560;34;20438;-67
2022/07/11 04:28:01;;;;;;;39.40;15.75;;;;;;;;;;4191398;34;20206;-67
2022/07/11 04:30:27;;;;;;;36.25;17.95;;;;;;;;;;4178908;34;20113;-67
2022/07/11 04:32:53;;;;;;;38.10;17.77;;;;;;;;;;4178535;34;20204;-67
2022/07/11 04:35:19;;;;;;;37.47;17.45;;;;;;;;;;4191330;34;20105;-67
2022/07/11 04:37:45;;;;;;;29.15;14.07;;;;;;;;;;4191412;34;20126;-67
2022/07/11 04:40:12;;;;;;;36.78;17.70;;;;;;;;;;4191323;34;20593;-67
2022/07/11 04:42:38;;;;;;;37.50;15.90;;;;;;;;;;4191334;34;20138;-68
2022/07/11 04:45:05;;;;;;;37.08;16.45;;;;;;;;;;4191367;34;20122;-67
2022/07/11 04:47:31;;;;;;;34.63;15.20;;;;;;;;;;4191332;34;20124;-67
2022/07/11 04:49:57;;;;;;;26.55;15.02;;;;;;;;;;4178206;34;20257;-67
2022/07/11 04:52:26;;;;;;;30.58;15.85;;;;;;;;;;4191316;34;20221;-67
2022/07/11 04:54:53;;;;;;;28.00;14.38;;;;;;;;;;4191248;34;20094;-67
2022/07/11 04:57:19;;;;;;;29.58;15.45;;;;;;;;;;4191288;34;20997;-67
2022/07/11 04:59:46;;;;;;;31.27;16.75;;;;;;;;;;4178430;34;20631;-67
2022/07/11 05:02:12;;;;;;;34.28;16.67;;;;;;;;;;4191209;34;20118;-67
2022/07/11 05:04:38;;;;;;;33.15;19.50;;;;;;;;;;4190992;34;20494;-67
2022/07/11 05:07:04;;;;;;;30.98;16.60;;;;;;;;;;4191100;34;20117;-67
2022/07/11 05:09:31;;;;;;;42.62;16.77;;;;;;;;;;4191094;34;20526;-68
2022/07/11 05:11:57;;;;;;;26.70;16.40;;;;;;;;;;4191273;34;20235;-68
2022/07/11 05:14:23;;;;;;;33.80;18.75;;;;;;;;;;4178136;34;20145;-70
2022/07/11 05:16:49;;;;;;;32.35;17.92;;;;;;;;;;4191304;34;20209;-70
2022/07/11 05:19:15;;;;;;;26.05;15.70;;;;;;;;;;4178258;34;20117;-70
2022/07/11 05:21:40;;;;;;;28.48;17.02;;;;;;;;;;4166689;34;20121;-68
2022/07/11 05:24:06;;;;;;;27.30;16.25;;;;;;;;;;4190881;34;20542;-67
2022/07/11 05:26:32;;;;;;;36.70;15.98;;;;;;;;;;4190940;34;20122;-67
2022/07/11 05:28:58;;;;;;;43.55;16.95;;;;;;;;;;4189984;34;20101;-68
2022/07/11 05:31:24;;;;;;;23.50;14.90;;;;;;;;;;4191116;34;20544;-70
2022/07/11 05:33:50;;;;;;;27.48;14.75;;;;;;;;;;4178278;34;20204;-69
2022/07/11 05:36:16;;;;;;;20.88;13.90;;;;;;;;;;4191336;34;20450;-68
2022/07/11 05:38:42;;;;;;;24.60;13.02;;;;;;;;;;4191057;34;20160;-66
2022/07/11 05:41:08;;;;;;;21.62;12.88;;;;;;;;;;4190815;34;20206;-65
2022/07/11 05:43:35;;;;;;;16.85;12.20;;;;;;;;;;4166889;34;20117;-67
2022/07/11 05:46:04;;;;;;;21.87;11.80;;;;;;;;;;4190770;34;20113;-68
2022/07/11 05:48:30;;;;;;;20.37;11.23;;;;;;;;;;4190647;34;20118;-66
2022/07/11 05:50:56;;;;;;;16.67;10.15;;;;;;;;;;4190645;34;20644;-66
2022/07/11 05:53:22;;;;;;;13.62;10.30;;;;;;;;;;4190711;34;20582;-67
2022/07/11 05:55:48;;;;;;;14.10;8.52;;;;;;;;;;4190662;34;20194;-68
2022/07/11 05:58:14;;;;;;;12.30;9.38;;;;;;;;;;4177996;34;20177;-67
2022/07/11 06:00:40;;;;;;;10.63;8.77;;;;;;;;;;4177744;34;20455;-68
2022/07/11 06:03:06;;;;;;;12.52;9.75;;;;;;;;;;4190812;34;20173;-69
2022/07/11 06:05:32;;;;;;;13.40;9.55;;;;;;;;;;4190643;34;20125;-68
2022/07/11 06:10:42;;;;;;;16.35;9.27;;;;;;;;;;4190572;34;20215;-69
2022/07/11 06:13:08;;;;;;;11.32;9.43;;;;;;;;;;4190711;34;20518;-69
2022/07/11 06:15:34;;;;;;;13.77;9.57;;;;;;;;;;4166814;34;20514;-69
2022/07/11 06:18:00;;;;;;;10.73;9.10;;;;;;;;;;4190903;34;20130;-67
2022/07/11 06:20:26;;;;;;;11.57;9.85;;;;;;;;;;4166267;34;20140;-67
2022/07/11 06:22:53;;;;;;;10.82;9.30;;;;;;;;;;4190352;34;20517;-67
2022/07/11 06:25:19;;;;;;;15.73;9.40;;;;;;;;;;4166409;34;20128;-65
2022/07/11 06:27:45;;;;;;;15.27;10.20;;;;;;;;;;4177636;34;20566;-67
2022/07/11 06:30:11;;;;;;;13.00;9.82;;;;;;;;;;4190150;34;20098;-67
2022/07/11 06:32:39;;;;;;;12.90;9.27;;;;;;;;;;4190423;34;20129;-67
2022/07/11 06:35:07;;;;;;;16.30;10.23;;;;;;;;;;4177597;34;20207;-69
2022/07/11 06:37:33;;;;;;;12.73;9.13;;;;;;;;;;4178012;34;20109;-68
2022/07/11 06:39:59;;;;;;;11.10;8.25;;;;;;;;;;4177291;34;20607;-68
2022/07/11 06:42:25;;;;;;;7.37;6.32;;;;;;;;;;4177481;34;20113;-66
2022/07/11 06:44:52;;;;;;;8.20;6.47;;;;;;;;;;4190342;34;20137;-65
2022/07/11 06:47:18;;;;;;;12.95;8.82;;;;;;;;;;4190252;34;20509;-75
2022/07/11 06:49:44;;;;;;;12.63;7.90;;;;;;;;;;4166209;34;20521;-66
2022/07/11 06:52:10;;;;;;;9.68;5.72;;;;;;;;;;4190065;34;20130;-68
2022/07/11 06:54:36;;;;;;;15.45;10.13;;;;;;;;;;4176980;34;20113;-67
2022/07/11 06:57:02;;;;;;;7.45;5.80;;;;;;;;;;4190132;34;20118;-70
2022/07/11 06:59:28;;;;;;;13.43;8.52;;;;;;;;;;4190036;34;20125;-69
2022/07/11 07:01:54;;;;;;;9.60;5.95;;;;;;;;;;4177226;34;20451;-70
2022/07/11 07:04:20;;;;;;;10.60;9.10;;;;;;;;;;4189967;34;20446;-69
2022/07/11 07:06:46;;;;;;;9.43;7.85;;;;;;;;;;4189977;34;20531;-68
2022/07/11 07:09:13;;;;;;;11.50;8.82;;;;;;;;;;4189786;34;20221;-69
2022/07/11 07:11:39;;;;;;;12.43;8.05;;;;;;;;;;4189875;34;20265;-68
2022/07/11 07:14:05;;;;;;;12.85;7.87;;;;;;;;;;4189616;34;20110;-69
2022/07/11 07:16:32;;;;;;;5.95;4.10;;;;;;;;;;4189925;34;20134;-70
2022/07/11 07:18:58;;;;;;;12.57;8.63;;;;;;;;;;4177056;34;20102;-69
2022/07/11 07:21:25;;;;;;;11.27;8.15;;;;;;;;;;4177206;34;20105;-70
2022/07/11 07:23:51;;;;;;;6.10;4.18;;;;;;;;;;4165858;34;20545;-70
2022/07/11 07:26:17;;;;;;;6.35;4.78;;;;;;;;;;4190016;34;20110;-69
2022/07/11 07:28:43;;;;;;;12.40;9.93;;;;;;;;;;4189922;34;20125;-68
2022/07/11 07:31:11;;;;;;;19.02;9.80;;;;;;;;;;4177100;34;20128;-69
2022/07/11 07:33:38;;;;;;;13.20;8.55;;;;;;;;;;4189523;34;20217;-68
2022/07/11 07:36:04;;;;;;;17.73;9.02;;;;;;;;;;4177058;34;20130;-68
2022/07/11 07:38:30;;;;;;;17.83;9.35;;;;;;;;;;4189576;34;20229;-68
2022/07/11 07:40:56;;;;;;;12.02;9.65;;;;;;;;;;4189635;34;20534;-68
2022/07/11 07:43:22;;;;;;;13.05;9.07;;;;;;;;;;4189522;34;20206;-69
2022/07/11 07:45:48;;;;;;;12.18;9.45;;;;;;;;;;4189449;34;20530;-69
2022/07/11 07:48:14;;;;;;;13.18;7.97;;;;;;;;;;4189815;34;20110;-70
2022/07/11 07:50:42;;;;;;;11.63;8.70;;;;;;;;;;4165218;34;20195;-71
2022/07/11 07:53:08;;;;;;;15.07;9.82;;;;;;;;;;4178881;34;20106;-70
2022/07/11 07:55:34;;;;;;;8.55;6.10;;;;;;;;;;4191636;34;20553;-70
2022/07/11 07:58:00;;;;;;;7.87;5.82;;;;;;;;;;4191556;34;20117;-70
2022/07/11 08:03:11;;;;;;;12.40;7.87;;;;;;;;;;4181096;34;20125;-70
2022/07/11 08:05:37;;;;;;;4.75;3.03;;;;;;;;;;4178722;34;20125;-67
2022/07/11 08:08:03;;;;;;;8.98;7.62;;;;;;;;;;4178594;34;20102;-68
2022/07/11 08:10:29;;;;;;;2.87;2.60;;;;;;;;;;4191530;34;20574;-68
2022/07/11 08:12:56;;;;;;;14.57;7.80;;;;;;;;;;4178629;34;20477;-67
2022/07/11 08:15:22;;;;;;;10.20;8.10;;;;;;;;;;4178598;34;20110;-69
2022/07/11 08:17:48;;;;;;;10.80;6.93;;;;;;;;;;4191393;34;20534;-71
2022/07/11 08:20:14;;;;;;;9.65;7.62;;;;;;;;;;4178707;34;20209;-70
2022/07/11 08:22:40;;;;;;;10.13;7.20;;;;;;;;;;4178987;34;20221;-69
2022/07/11 08:25:07;;;;;;;9.75;7.93;;;;;;;;;;4191536;34;20117;-67
2022/07/11 08:27:33;;;;;;;12.95;8.13;;;;;;;;;;4178822;34;20846;-69
2022/07/11 08:29:59;;;;;;;10.27;7.28;;;;;;;;;;4191368;34;20161;-69
2022/07/11 08:32:25;;;;;;;10.02;7.18;;;;;;;;;;4178336;34;20132;-69
2022/07/11 08:34:51;;;;;;;8.00;7.20;;;;;;;;;;4191455;34;20144;-69
2022/07/11 08:37:17;;;;;;;10.10;7.35;;;;;;;;;;4191451;34;20134;-69
2022/07/11 08:39:43;;;;;;;8.48;6.05;;;;;;;;;;4191302;34;20238;-69
2022/07/11 08:42:09;;;;;;;12.88;6.45;;;;;;;;;;4191285;34;20194;-73
2022/07/11 08:44:37;;;;;;;7.25;6.07;;;;;;;;;;4178596;34;20113;-69
2022/07/11 08:47:03;;;;;;;7.03;4.47;;;;;;;;;;4178827;34;20095;-70
2022/07/11 08:49:31;;;;;;;7.78;5.18;;;;;;;;;;4178723;34;20102;-68
2022/07/11 08:51:57;;;;;;;6.78;5.70;;;;;;;;;;4178433;34;20113;-70
2022/07/11 08:54:23;;;;;;;6.18;5.28;;;;;;;;;;4178450;34;20557;-68
2022/07/11 08:56:50;;;;;;;7.50;5.60;;;;;;;;;;4191167;34;20102;-68
2022/07/11 08:59:19;;;;;;;8.93;5.22;;;;;;;;;;4179038;34;20193;-69
2022/07/11 09:01:46;;;;;;;4.80;4.30;;;;;;;;;;4178232;34;20113;-68
2022/07/11 09:04:13;;;;;;;7.57;5.12;;;;;;;;;;4191212;34;20177;-68
2022/07/11 09:06:40;;;;;;;6.20;4.82;;;;;;;;;;4191157;34;20137;-69
2022/07/11 09:09:06;;;;;;;9.50;5.70;;;;;;;;;;4190939;34;20141;-68
2022/07/11 09:11:52;;;;;;;7.45;5.37;;;;;;;;;;4178263;34;20141;-68
2022/07/11 09:14:25;;;;;;;5.87;4.80;;;;;;;;;;4178478;34;20118;-68
2022/07/11 09:17:03;;;;;;;9.85;6.37;;;;;;;;;;4191290;34;20103;-70
2022/07/11 09:19:31;;;;;;;7.10;5.87;;;;;;;;;;4178120;34;20514;-69
2022/07/11 09:27:48;;;;;;;7.55;5.87;;;;;;;;;;4191114;34;20213;-67
2022/07/11 09:30:23;;;;;;;7.72;6.72;;;;;;;;;;4178340;34;20520;-67
2022/07/11 09:32:59;;;;;;;;;;;;;;;;;;4191390;34;20101;-67
2022/07/11 09:35:26;;;;;;;;;;;;;;;;;;4178603;34;19988;-68
2022/07/11 09:37:53;;;;;;;7.43;5.75;;;;;;;;;;4178076;34;20434;-68
2022/07/11 09:40:21;;;;;;;8.18;6.25;;;;;;;;;;4190858;34;20201;-67
2022/07/11 09:42:49;;;;;;;7.30;5.45;;;;;;;;;;4177902;34;20110;-68
2022/07/11 09:45:16;;;;;;;8.48;6.22;;;;;;;;;;4190755;34;20185;-67
2022/07/11 09:47:54;;;;;;;11.07;6.00;;;;;;;;;;4177990;34;20121;-66
2022/07/11 09:50:24;;;;;;;13.48;5.80;;;;;;;;;;4177899;34;20173;-67
2022/07/11 09:53:03;;;;;;;7.30;5.62;;;;;;;;;;4177946;34;20107;-67
2022/07/11 09:55:30;;;;;;;7.57;5.10;;;;;;;;;;4191013;34;20098;-65
2022/07/11 09:57:56;;;;;;;6.07;5.18;;;;;;;;;;4166501;34;20121;-68
2022/07/11 10:00:23;;;;;;;8.23;5.87;;;;;;;;;;4190774;34;20094;-68
2022/07/11 10:02:49;;;;;;;6.65;5.25;;;;;;;;;;4177904;34;20078;-68
2022/07/11 10:05:15;;;;;;;8.57;5.28;;;;;;;;;;4177920;34;20113;-67
2022/07/11 10:07:41;;;;;;;14.10;6.03;;;;;;;;;;4190710;34;20600;-67
2022/07/11 10:10:09;;;;;;;10.02;5.50;;;;;;;;;;4190557;34;20731;-68
2022/07/11 10:12:36;;;;;;;14.95;5.82;;;;;;;;;;4190726;34;20506;-68
2022/07/11 10:15:06;;;;;;;8.73;5.72;;;;;;;;;;4190055;34;20141;-68
2022/07/11 10:17:54;;;;;;;6.03;5.37;;;;;;;;;;4178012;34;20609;-68
2022/07/11 10:20:29;;;;;;;12.95;5.37;;;;;;;;;;4190793;34;20108;-67
2022/07/11 10:23:10;;;;;;;11.68;5.15;;;;;;;;;;4177987;34;20106;-68
2022/07/11 10:25:48;;;;;;;5.05;4.35;;;;;;;;;;4190584;34;20798;-68
2022/07/11 10:28:30;;;;;;;4.95;4.22;;;;;;;;;;4177671;34;20116;-68
2022/07/11 10:30:59;;;;;;;7.82;5.32;;;;;;;;;;4177709;34;20462;-68
2022/07/11 10:33:27;;;;;;;6.45;4.78;;;;;;;;;;4190222;34;20129;-67
2022/07/11 10:35:53;;;;;;;12.37;4.65;;;;;;;;;;4177925;34;20129;-68
2022/07/11 10:38:20;;;;;;;6.90;4.78;;;;;;;;;;4190578;34;20117;-65
2022/07/11 10:40:57;;;;;;;11.48;5.28;;;;;;;;;;4176927;34;20090;-67
2022/07/11 10:43:26;;;;;;;6.43;5.05;;;;;;;;;;4190474;34;20102;-65
2022/07/11 10:46:03;;;;;;;5.87;5.22;;;;;;;;;;4190474;34;20110;-67
2022/07/11 10:48:32;;;;;;;13.75;5.95;;;;;;;;;;4165973;34;20108;-67
2022/07/11 10:51:27;;;;;;;6.10;4.75;;;;;;;;;;4177542;34;20145;-65
2022/07/11 10:53:53;;;;;;;8.10;4.27;;;;;;;;;;4189017;34;20471;-66
2022/07/11 10:56:22;;;;;;;5.90;4.97;;;;;;;;;;4190309;34;20125;-66
2022/07/11 10:59:08;;;;;;;6.45;4.85;;;;;;;;;;4189944;34;20106;-66
2022/07/11 11:01:34;;;;;;;6.32;4.82;;;;;;;;;;4177313;34;20447;-68
2022/07/11 11:04:41;;;;;;;6.25;4.75;;;;;;;;;;4190132;34;20122;-68
2022/07/11 11:07:33;;;;;;;4.18;3.72;;;;;;;;;;4177310;34;20534;-68
2022/07/11 11:10:01;;;;;;;5.30;4.65;;;;;;;;;;4190083;34;20106;-68
2022/07/11 11:13:04;;;;;;;5.97;4.22;;;;;;;;;;4189915;34;20094;-67
2022/07/11 11:15:34;;;;;;;6.62;4.90;;;;;;;;;;4176957;34;20195;-67
2022/07/11 11:18:22;;;;;;;7.32;5.75;;;;;;;;;;4189855;34;20130;-67
2022/07/11 11:21:09;;;;;;;6.72;4.90;;;;;;;;;;4189935;34;20101;-67
2022/07/11 11:23:37;;;;;;;5.07;4.45;;;;;;;;;;4177089;34;20137;-66
2022/07/11 11:26:18;;;;;;;4.50;4.10;;;;;;;;;;4165987;34;20172;-68
2022/07/11 11:29:05;;;;;;;5.32;4.68;;;;;;;;;;4191991;34;20190;-66
2022/07/11 11:31:32;;;;;;;11.57;5.18;;;;;;;;;;4191863;34;20110;-68
2022/07/11 11:34:01;;;;;;;4.97;4.47;;;;;;;;;;4178939;34;20126;-67
2022/07/11 11:36:28;;;;;;;6.75;5.25;;;;;;;;;;4191869;34;20190;-66
2022/07/11 11:38:55;;;;;;;6.55;4.90;;;;;;;;;;4178988;34;20121;-64
2022/07/11 11:41:23;;;;;;;12.07;5.47;;;;;;;;;;4191745;34;20097;-66
2022/07/11 11:43:49;;;;;;;8.25;4.12;;;;;;;;;;4179040;34;20201;-67
2022/07/11 11:46:15;;;;;;;5.07;4.40;;;;;;;;;;4191843;34;20443;-66
2022/07/11 11:48:45;;;;;;;8.32;4.57;;;;;;;;;;4178917;34;20113;-66
2022/07/11 11:51:15;;;;;;;5.35;4.32;;;;;;;;;;4191560;34;20554;-65
2022/07/11 11:53:44;;;;;;;6.05;4.37;;;;;;;;;;4178957;34;20129;-66
2022/07/11 11:56:16;;;;;;;4.85;4.35;;;;;;;;;;4178860;34;20141;-66
2022/07/11 11:58:43;;;;;;;14.45;5.37;;;;;;;;;;4191655;34;20205;-66
2022/07/11 12:01:13;;;;;;;9.57;4.55;;;;;;;;;;4191568;34;20110;-65
2022/07/11 12:03:55;;;;;;;7.55;4.78;;;;;;;;;;4191577;34;20482;-65
2022/07/11 12:06:23;;;;;;;6.75;3.87;;;;;;;;;;4179357;34;20177;-66
2022/07/11 12:08:50;;;;;;;5.47;4.37;;;;;;;;;;4178515;34;20125;-66
2022/07/11 12:11:16;;;;;;;5.28;4.40;;;;;;;;;;4178803;34;20120;-67
2022/07/11 12:13:43;;;;;;;6.70;3.97;;;;;;;;;;4167307;34;20203;-67
2022/07/11 12:19:01;;;;;;;7.87;4.87;;;;;;;;;;4191566;34;20134;-68
2022/07/11 12:21:29;;;;;;;7.00;4.05;;;;;;;;;;4191672;34;20541;-65
2022/07/11 12:24:06;;;;;;;4.20;3.12;;;;;;;;;;4191575;34;20549;-67
2022/07/11 12:26:37;;;;;;;6.62;3.22;;;;;;;;;;4178812;34;20529;-67
2022/07/11 12:29:11;;;;;;;5.43;3.40;;;;;;;;;;4178538;34;20156;-67
2022/07/11 12:31:50;;;;;;;4.57;3.87;;;;;;;;;;4167310;34;20466;-66
2022/07/11 12:34:22;;;;;;;6.70;3.58;;;;;;;;;;4167411;34;20177;-67
2022/07/11 12:36:48;;;;;;;5.25;4.20;;;;;;;;;;4178574;34;20122;-74
2022/07/11 12:39:28;;;;;;;5.72;4.37;;;;;;;;;;4167687;34;20528;-66
2022/07/11 12:41:55;;;;;;;4.62;3.90;;;;;;;;;;4191305;34;20109;-67
2022/07/11 12:47:24;;;;;;;5.85;4.12;;;;;;;;;;4191397;34;20206;-68
2022/07/11 12:49:51;;;;;;;4.40;4.00;;;;;;;;;;4191399;34;20176;-69
2022/07/11 12:52:18;;;;;;;6.60;4.30;;;;;;;;;;4178640;34;20125;-67
2022/07/11 12:54:45;;;;;;;4.47;3.62;;;;;;;;;;4191873;34;20160;-69
2022/07/11 12:57:16;;;;;;;11.98;4.25;;;;;;;;;;4178817;34;20214;-67
2022/07/11 12:59:42;;;;;;;7.93;4.00;;;;;;;;;;4191304;34;20196;-67
2022/07/11 13:02:10;;;;;;;7.65;4.70;;;;;;;;;;4178315;34;20095;-68
2022/07/11 13:04:42;;;;;;;4.82;4.00;;;;;;;;;;4191090;34;20102;-70
2022/07/11 13:10:06;;;;;;;5.00;4.50;;;;;;;;;;4191187;34;20096;-67
2022/07/11 13:12:32;;;;;;;5.05;4.00;;;;;;;;;;4178411;34;20098;-66
2022/07/11 13:15:10;;;;;;;5.15;3.72;;;;;;;;;;4190946;34;20194;-68
2022/07/11 13:17:40;;;;;;;4.53;3.58;;;;;;;;;;4178856;34;20124;-69
2022/07/11 13:20:12;;;;;;;5.60;3.35;;;;;;;;;;4178069;34;20110;-69
2022/07/11 13:22:39;;;;;;;7.95;3.45;;;;;;;;;;4167080;34;20114;-71
2022/07/11 13:25:06;;;;;;;5.20;3.05;;;;;;;;;;4190964;34;20110;-72
2022/07/11 13:27:33;;;;;;;11.50;3.92;;;;;;;;;;4178429;34;20141;-72
2022/07/11 13:30:01;;;;;;;6.60;4.62;;;;;;;;;;4178068;34;20129;-71
2022/07/11 13:32:27;;;;;;;5.47;3.10;;;;;;;;;;4178290;34;20113;-71
2022/07/11 13:34:53;;;;;;;4.80;3.62;;;;;;;;;;4190870;34;20114;-70
2022/07/11 13:37:20;;;;;;;3.97;3.60;;;;;;;;;;4190921;34;20222;-70
2022/07/11 13:39:46;;;;;;;13.07;3.85;;;;;;;;;;4190789;34;20128;-71
2022/07/11 13:42:12;;;;;;;6.12;3.75;;;;;;;;;;4191100;34;20141;-71
2022/07/11 13:44:38;;;;;;;4.32;3.92;;;;;;;;;;4190949;34;20129;-69
2022/07/11 13:47:04;;;;;;;4.37;3.78;;;;;;;;;;4190767;34;20641;-72
2022/07/11 13:49:30;;;;;;;7.60;4.95;;;;;;;;;;4189957;34;20211;-71
2022/07/11 13:51:56;;;;;;;4.68;4.18;;;;;;;;;;4190673;34;20129;-70
2022/07/11 13:54:22;;;;;;;7.43;4.05;;;;;;;;;;4190781;34;20118;-70
2022/07/11 13:56:49;;;;;;;5.60;3.83;;;;;;;;;;4190661;34;20596;-70
2022/07/11 13:59:15;;;;;;;5.57;3.72;;;;;;;;;;4178000;34;20206;-75
2022/07/11 14:01:41;;;;;;;4.75;3.67;;;;;;;;;;4190822;34;20222;-73
2022/07/11 14:04:07;;;;;;;7.50;4.47;;;;;;;;;;4177593;34;20558;-72
2022/07/11 14:06:36;;;;;;;5.43;4.37;;;;;;;;;;4190754;34;20198;-70
2022/07/11 14:09:03;;;;;;;14.07;4.70;;;;;;;;;;4177610;34;20186;-70
2022/07/11 14:11:29;;;;;;;12.82;5.28;;;;;;;;;;4177810;34;20122;-71
2022/07/11 14:13:57;;;;;;;10.50;4.72;;;;;;;;;;4177877;34;20189;-72
2022/07/11 14:16:24;;;;;;;5.57;4.57;;;;;;;;;;4177891;34;20118;-69
2022/07/11 14:18:51;;;;;;;5.40;4.40;;;;;;;;;;4177632;34;20129;-74
2022/07/11 14:21:17;;;;;;;9.48;4.82;;;;;;;;;;4166607;34;20107;-71
2022/07/11 14:23:43;;;;;;;9.73;5.35;;;;;;;;;;4190569;34;20210;-71
2022/07/11 14:26:09;;;;;;;8.98;4.82;;;;;;;;;;4177937;34;20090;-72
2022/07/11 14:28:36;;;;;;;8.05;4.68;;;;;;;;;;4177507;34;20133;-70
2022/07/11 14:31:03;;;;;;;7.32;4.57;;;;;;;;;;4166187;34;20149;-68
2022/07/11 14:33:29;;;;;;;9.45;4.30;;;;;;;;;;4156067;34;20189;-70
2022/07/11 14:35:55;;;;;;;9.18;4.75;;;;;;;;;;4166442;34;20098;-71
2022/07/11 14:38:21;;;;;;;11.68;6.07;;;;;;;;;;4177801;34;20125;-71
2022/07/11 14:40:47;;;;;;;15.98;7.10;;;;;;;;;;4190681;34;20122;-70
2022/07/11 14:43:13;;;;;;;9.93;5.45;;;;;;;;;;4177544;34;20450;-72
2022/07/11 14:45:39;;;;;;;7.28;5.30;;;;;;;;;;4190340;34;20124;-72
2022/07/11 14:48:06;;;;;;;20.85;5.10;;;;;;;;;;4190195;34;20160;-73
2022/07/11 14:50:34;;;;;;;7.60;5.32;;;;;;;;;;4177544;34;20206;-72
2022/07/11 14:53:00;;;;;;;11.50;4.90;;;;;;;;;;4177106;34;20145;-70
2022/07/11 14:55:27;;;;;;;10.50;6.50;;;;;;;;;;4190106;34;20126;-71
2022/07/11 14:57:55;;;;;;;11.12;5.05;;;;;;;;;;4152700;34;20113;-75
2022/07/11 15:00:23;;;;;;;7.87;5.55;;;;;;;;;;4176289;34;20098;-76
2022/07/11 15:05:35;;;;;;;6.00;5.40;;;;;;;;;;4190712;34;20186;-72
2022/07/11 15:13:33;;;;;;;11.10;5.07;;;;;;;;;;4191864;34;20625;-71
2022/07/11 15:16:01;;;;;;;9.10;6.28;;;;;;;;;;4179143;34;20126;-71
2022/07/11 15:18:28;;;;;;;16.95;5.57;;;;;;;;;;4178937;34;20123;-71
2022/07/11 15:20:55;;;;;;;19.40;7.47;;;;;;;;;;4179180;34;20173;-71
2022/07/11 15:23:25;;;;;;;12.37;6.07;;;;;;;;;;4167832;34;20118;-71
2022/07/11 15:25:51;;;;;;;9.98;6.25;;;;;;;;;;4179517;34;20103;-69
2022/07/11 15:28:17;;;;;;;10.13;6.65;;;;;;;;;;4178827;34;20129;-71
2022/07/11 15:30:44;;;;;;;11.48;7.03;;;;;;;;;;4191876;34;20569;-71
2022/07/11 15:33:10;;;;;;;15.73;6.82;;;;;;;;;;4180176;34;20092;-74
2022/07/11 15:35:36;;;;;;;10.48;6.95;;;;;;;;;;4179617;34;20145;-70